Cominto, Arkansas
Current Conditions -  °F | °C
As of 7:15 AM on Monday 22 Dec 2014 (Local Time) from KLLQ Reporting Station
Haze Haze  
Wind Chill: 50°   Ceiling: 200
Heat Index: 50°   Visibility: 1.7mi
Dew Point: 49°   Wind: 6mph
Humidity: 96%   Direction: 180°S
Pressure: 29.81"   Gusts: NA
Location:  33.5819°N, 91.7907°W
Report Text: KLLQ 221315Z AUTO 18005KT 1 3/4SM BR OVC002 10/09 A2981 RMK AO2 T01000094
Loading
Personal Weather Stations






























Interactive Weather Map New forecast layout! Learn more

10-Day Weather Forecast

Advertisements
Track Severe Weather on mobile